createdAt,value
2022-09-17T00:03:25.277Z,2.30
2022-09-17T00:08:32.513Z,2.90
2022-09-17T00:13:38.601Z,2.10
2022-09-17T00:18:44.882Z,2.40
2022-09-17T00:23:53.215Z,2.50
2022-09-17T00:29:00.778Z,2.50
2022-09-17T00:34:08.181Z,1.80
2022-09-17T00:39:16.378Z,2.00
2022-09-17T00:44:46.100Z,1.90
2022-09-17T00:49:56.092Z,2.30
2022-09-17T00:55:13.149Z,2.10
2022-09-17T01:00:20.949Z,1.60
2022-09-17T01:05:36.752Z,2.10
2022-09-17T01:11:11.149Z,1.90
2022-09-17T01:16:26.233Z,2.50
2022-09-17T01:21:43.265Z,2.20
2022-09-17T01:27:22.504Z,1.90
2022-09-17T01:32:35.006Z,2.20
2022-09-17T01:37:54.397Z,1.90
2022-09-17T01:43:05.989Z,2.20
2022-09-17T01:48:19.391Z,1.70
2022-09-17T01:53:31.656Z,2.00
2022-09-17T01:58:42.174Z,2.00
2022-09-17T02:03:54.957Z,1.90
2022-09-17T02:09:06.018Z,1.90
2022-09-17T02:14:17.405Z,2.20
2022-09-17T02:19:27.694Z,1.70
2022-09-17T02:24:42.840Z,1.90
2022-09-17T02:29:49.472Z,1.70
2022-09-17T02:34:56.693Z,2.00
2022-09-17T02:40:03.968Z,1.80
2022-09-17T02:45:22.016Z,1.90
2022-09-17T02:50:41.951Z,2.00
2022-09-17T02:55:55.285Z,2.10
2022-09-17T03:01:08.807Z,1.90
2022-09-17T03:06:15.202Z,1.70
2022-09-17T03:11:21.782Z,1.70
2022-09-17T03:16:27.920Z,1.80
2022-09-17T03:21:34.357Z,2.30
2022-09-17T03:26:40.476Z,1.90
2022-09-17T03:31:46.947Z,1.80
2022-09-17T03:36:53.671Z,1.50
2022-09-17T03:41:59.647Z,1.80
2022-09-17T03:47:05.920Z,1.80
2022-09-17T03:52:12.306Z,2.00
2022-09-17T03:57:18.391Z,1.80
2022-09-17T04:02:24.736Z,1.90
2022-09-17T04:07:31.174Z,2.10
2022-09-17T04:12:37.624Z,2.40
2022-09-17T04:17:43.914Z,2.20
2022-09-17T04:22:50.101Z,2.00
2022-09-17T04:27:55.985Z,1.90
2022-09-17T04:33:02.109Z,2.30
2022-09-17T04:38:09.228Z,2.40
2022-09-17T04:43:15.567Z,2.30
2022-09-17T04:48:21.650Z,2.00
2022-09-17T04:53:27.605Z,1.90
2022-09-17T04:58:34.400Z,2.30
2022-09-17T05:03:41.010Z,2.00
2022-09-17T05:08:47.178Z,1.90
2022-09-17T05:13:53.071Z,2.00
2022-09-17T05:18:59.432Z,2.10
2022-09-17T05:24:06.050Z,2.10
2022-09-17T05:29:12.464Z,1.80
2022-09-17T05:34:18.389Z,1.90
2022-09-17T05:39:27.269Z,1.80
2022-09-17T05:44:33.609Z,1.80
2022-09-17T05:49:39.590Z,1.80
2022-09-17T05:54:45.665Z,1.70
2022-09-17T05:59:52.057Z,1.80
2022-09-17T06:05:01.727Z,1.50
2022-09-17T06:10:09.647Z,1.70
2022-09-17T06:15:15.794Z,1.50
2022-09-17T06:20:22.677Z,1.40
2022-09-17T06:25:31.888Z,1.40
2022-09-17T06:30:38.210Z,0.90
2022-09-17T06:35:44.282Z,1.10
2022-09-17T06:40:53.988Z,1.10
2022-09-17T06:46:02.208Z,1.00
2022-09-17T06:51:11.254Z,1.00
2022-09-17T06:56:17.982Z,1.20
2022-09-17T07:01:24.031Z,0.90
2022-09-17T07:06:30.176Z,0.90
2022-09-17T07:11:35.907Z,1.20
2022-09-17T07:16:41.747Z,0.90
2022-09-17T07:21:49.886Z,0.80
2022-09-17T07:26:56.149Z,1.40
2022-09-17T07:32:02.485Z,1.20
2022-09-17T07:37:08.994Z,1.20
2022-09-17T07:42:14.747Z,1.30
2022-09-17T07:47:20.992Z,1.60
2022-09-17T07:52:27.740Z,1.60
2022-09-17T07:57:33.700Z,1.70
2022-09-17T08:02:40.344Z,2.10
2022-09-17T08:07:49.782Z,2.00
2022-09-17T08:12:58.685Z,2.10
2022-09-17T08:18:05.161Z,2.10
2022-09-17T08:23:11.291Z,2.70
2022-09-17T08:28:17.416Z,1.80
2022-09-17T08:33:23.395Z,1.50
2022-09-17T08:38:32.546Z,2.20
2022-09-17T08:43:48.184Z,1.90
2022-09-17T08:49:02.576Z,1.80
2022-09-17T08:54:18.890Z,3.40
2022-09-17T08:59:34.839Z,3.10
2022-09-17T09:05:02.584Z,3.90
2022-09-17T09:10:17.750Z,1.60
2022-09-17T09:15:42.401Z,1.30
2022-09-17T09:20:53.557Z,1.70
2022-09-17T09:26:11.806Z,1.10
2022-09-17T09:31:47.520Z,1.50
2022-09-17T09:36:59.271Z,1.20
2022-09-17T09:42:16.214Z,1.40
2022-09-17T09:47:41.954Z,1.50
2022-09-17T09:52:59.724Z,1.70
2022-09-17T09:58:21.898Z,2.20
2022-09-17T10:03:32.669Z,1.30
2022-09-17T10:08:40.198Z,1.20
2022-09-17T10:13:46.542Z,1.10
2022-09-17T10:19:11.995Z,1.30
2022-09-17T10:24:25.630Z,1.50
2022-09-17T10:29:33.628Z,2.20
2022-09-17T10:34:41.509Z,1.40
2022-09-17T10:39:48.836Z,1.40
2022-09-17T10:44:56.110Z,1.30
2022-09-17T10:55:02.291Z,1.60
2022-09-17T11:00:16.650Z,1.10
2022-09-17T11:05:38.532Z,1.40
2022-09-17T11:10:52.853Z,1.00
2022-09-17T11:16:14.556Z,1.10
2022-09-17T11:21:49.171Z,1.10
2022-09-17T11:27:05.225Z,1.00
2022-09-17T11:32:35.119Z,0.80
2022-09-17T11:37:48.975Z,1.00
2022-09-17T11:42:59.207Z,2.10
2022-09-17T11:48:10.854Z,1.00
2022-09-17T11:53:26.258Z,0.80
2022-09-17T11:58:43.614Z,0.90
2022-09-17T12:03:56.700Z,1.10
2022-09-17T12:09:05.164Z,1.00
2022-09-17T12:14:22.280Z,1.40
2022-09-17T12:19:34.466Z,0.80
2022-09-17T12:24:41.548Z,1.00
2022-09-17T12:30:09.608Z,1.20
2022-09-17T12:35:53.069Z,1.20
2022-09-17T12:41:06.375Z,1.90
2022-09-17T12:46:34.920Z,8.50
2022-09-17T12:51:55.366Z,10.60
2022-09-17T12:57:10.597Z,4.40
2022-09-17T13:02:22.915Z,2.50
2022-09-17T13:08:09.145Z,1.90
2022-09-17T13:13:30.726Z,2.30
2022-09-17T13:18:59.451Z,1.60
2022-09-17T13:24:19.762Z,1.70
2022-09-17T13:29:59.467Z,1.70
2022-09-17T13:35:48.902Z,2.00
2022-09-17T13:41:25.407Z,2.90
2022-09-17T13:46:34.611Z,2.60
2022-09-17T13:51:56.411Z,1.60
2022-09-17T13:57:22.705Z,1.50
2022-09-17T14:02:35.312Z,1.50
2022-09-17T14:07:51.140Z,3.30
2022-09-17T14:13:00.906Z,25.80
2022-09-17T14:18:35.877Z,2.60
2022-09-17T14:23:47.440Z,1.80
2022-09-17T14:29:03.197Z,4.90
2022-09-17T14:34:16.924Z,6.90
2022-09-17T14:39:25.611Z,8.20
2022-09-17T14:44:34.887Z,4.80
2022-09-17T14:49:41.027Z,3.30
2022-09-17T14:54:46.850Z,2.00
2022-09-17T14:59:56.045Z,2.30
2022-09-17T15:05:04.172Z,1.80
2022-09-17T15:10:16.219Z,2.40
2022-09-17T15:15:24.574Z,1.60
2022-09-17T15:20:32.191Z,2.20
2022-09-17T15:25:41.255Z,2.40
2022-09-17T15:30:51.998Z,3.30
2022-09-17T15:36:16.051Z,4.70
2022-09-17T15:41:31.847Z,2.70
2022-09-17T15:46:38.052Z,4.00
2022-09-17T15:51:43.978Z,9.40
2022-09-17T15:56:58.217Z,8.70
2022-09-17T16:02:05.332Z,7.30
2022-09-17T16:07:33.950Z,5.60
2022-09-17T16:12:40.091Z,3.90
2022-09-17T16:17:47.336Z,9.60
2022-09-17T16:22:57.319Z,6.80
2022-09-17T16:28:06.947Z,4.30
2022-09-17T16:33:14.738Z,4.00
2022-09-17T16:38:20.606Z,3.90
2022-09-17T16:43:27.189Z,6.20
2022-09-17T16:48:33.881Z,20.90
2022-09-17T16:53:40.570Z,65.40
2022-09-17T16:58:46.347Z,78.80
2022-09-17T17:03:55.679Z,34.40
2022-09-17T17:09:01.953Z,15.20
2022-09-17T17:14:11.489Z,12.50
2022-09-17T17:19:19.816Z,10.20
2022-09-17T17:24:25.627Z,9.80
2022-09-17T17:29:31.667Z,7.90
2022-09-17T17:34:37.453Z,14.50
2022-09-17T17:39:43.254Z,26.40
2022-09-17T17:44:48.977Z,22.60
2022-09-17T17:49:54.749Z,27.60
2022-09-17T17:55:00.677Z,29.20
2022-09-17T18:00:08.609Z,29.10
2022-09-17T18:05:21.992Z,28.30
2022-09-17T18:10:27.800Z,27.80
2022-09-17T18:15:33.679Z,18.40
2022-09-17T18:20:39.476Z,19.10
2022-09-17T18:25:53.925Z,13.90
2022-09-17T18:31:06.448Z,24.80
2022-09-17T18:36:13.089Z,33.50
2022-09-17T18:41:18.727Z,20.30
2022-09-17T18:46:25.202Z,18.60
2022-09-17T18:51:31.148Z,20.00
2022-09-17T18:56:41.379Z,18.90
2022-09-17T19:01:47.279Z,17.10
2022-09-17T19:06:58.425Z,17.60
2022-09-17T19:12:04.746Z,21.40
2022-09-17T19:17:10.599Z,20.90
2022-09-17T19:22:18.498Z,20.90
2022-09-17T19:27:29.682Z,23.10
2022-09-17T19:32:35.581Z,30.30
2022-09-17T19:37:41.829Z,31.90
2022-09-17T19:42:54.030Z,24.40
2022-09-17T19:48:01.648Z,21.80
2022-09-17T19:53:07.604Z,26.20
2022-09-17T19:58:13.675Z,29.10
2022-09-17T20:03:19.670Z,29.30
2022-09-17T20:08:25.733Z,28.90
2022-09-17T20:13:31.656Z,31.90
2022-09-17T20:18:38.207Z,33.00
2022-09-17T20:23:44.143Z,31.90
2022-09-17T20:28:51.587Z,28.70
2022-09-17T20:34:01.128Z,31.50
2022-09-17T20:39:14.275Z,32.60
2022-09-17T20:44:23.789Z,26.20
2022-09-17T20:49:29.839Z,22.00
2022-09-17T20:54:35.919Z,16.50
2022-09-17T20:59:56.676Z,16.50
2022-09-17T21:05:02.509Z,11.80
2022-09-17T21:10:10.292Z,10.10
2022-09-17T21:15:16.276Z,10.60
2022-09-17T21:20:21.962Z,9.60
2022-09-17T21:25:28.335Z,8.10
2022-09-17T21:30:34.400Z,7.00
2022-09-17T21:35:40.422Z,7.10
2022-09-17T21:40:55.872Z,7.10
2022-09-17T21:46:04.999Z,6.10
2022-09-17T21:51:12.878Z,5.70
2022-09-17T21:56:20.061Z,5.70
2022-09-17T22:01:27.900Z,5.60
2022-09-17T22:06:33.979Z,5.20
2022-09-17T22:11:39.860Z,5.30
2022-09-17T22:16:47.468Z,5.70
2022-09-17T22:21:55.349Z,5.80
2022-09-17T22:27:02.395Z,5.10
2022-09-17T22:32:08.214Z,4.90
2022-09-17T22:37:13.986Z,5.40
2022-09-17T22:42:19.805Z,6.00
2022-09-17T22:47:25.582Z,5.40
2022-09-17T22:52:31.242Z,4.90
2022-09-17T22:57:37.112Z,5.30
2022-09-17T23:02:42.915Z,5.30
2022-09-17T23:07:48.657Z,5.30
2022-09-17T23:12:55.242Z,5.40
2022-09-17T23:18:01.217Z,5.70
2022-09-17T23:23:07.476Z,5.60
2022-09-17T23:28:13.371Z,5.10
2022-09-17T23:33:19.133Z,4.70
2022-09-17T23:38:24.874Z,5.60
2022-09-17T23:43:30.526Z,6.90
2022-09-17T23:48:36.772Z,6.40
2022-09-17T23:53:42.618Z,6.20
2022-09-17T23:58:49.007Z,6.30
